Weather at Loughbrickland Airstrip [CLOSED]

Public forecast

Using degrees Celsius for public forecast. Weather courtesy of forecast.io.

Closest aviation weather report (METAR) to Loughbrickland Airstrip

Closest report is Belfast International Airport, 20.0 nm (37.1 km) N.

2024/06/18 11:20 (retrieved 10 minutes ago)

EGAA 181120Z AUTO 34013KT 9999 OVC037 13/05 Q1019

Closest aviation forecast (TAF) to Loughbrickland Airstrip

Closest forecast is Belfast International Airport, 20.0 nm (37.1 km) N.

2024/06/18 06:49 Ammendment (retrieved 5 hours ago)

TAF AMD EGAA 180615Z 1806/1906 34014KT 9999 FEW010 BKN015 PROB30 TEMPO 1806/1812 3000 RADZ BKN007